Latest Weather Observations for Norah Head

IDN60901

Issued at 5:11 am EDT Wednesday 13 November 2019 (issued every 10 minutes, with the page automatically refreshed every 10 minutes)

About weather observations | Map of Sydney area stations | Latest observations for Sydney area | Other Formats
Station Details ID: 061366 Name: NORAH HEAD AWS Lat: -33.28 Lon: 151.58 Height: 18.8 m
Data from the previous 72 hours. | See also: Recent months at Norah Head
Date/Time
EDT
Temp
°C
App
Temp
°C
Dew
Point
°C
Rel
Hum
%
Delta-T
°C
Wind Press
QNH
hPa
Press
MSL
hPa
Rain since
9am
mm
Dir  Spd
km/h
Gust
km/h
Spd
kts
Gust
kts
13/05:00am 15.4 13.7 11.2 76 2.2 WSW 11 17 6 9 1011.0 1010.9 0.0
13/04:30am 16.3 14.7 11.5 73 2.6 SW 11 20 6 11 1010.7 1010.6 0.0
13/04:00am 16.7 14.6 12.5 76 2.3 SSW 15 20 8 11 1010.4 1010.3 0.0
13/03:30am 16.7 13.8 12.3 75 2.4 S 19 24 10 13 1010.3 1010.2 0.0
13/03:00am 16.9 13.9 12.6 76 2.4 S 20 26 11 14 1010.2 1010.1 0.0
13/02:30am 16.8 12.2 12.3 75 2.5 S 28 35 15 19 1010.2 1010.1 0.0
13/02:00am 17.0 11.6 12.7 76 2.4 S 33 43 18 23 1010.1 1010.0 0.0
13/01:30am 17.2 11.1 13.1 77 2.3 S 37 44 20 24 1010.0 1009.9 0.0
13/01:00am 17.3 10.5 13.2 77 2.3 S 41 50 22 27 1009.9 1009.8 0.0
13/12:30am 17.3 9.2 13.2 77 2.3 S 48 59 26 32 1009.2 1009.2 0.0
13/12:00am 17.5 8.8 13.6 78 2.2 S 52 63 28 34 1009.0 1009.0 0.0
 
Date/Time
EDT
Temp
°C
App
Temp
°C
Dew
Point
°C
Rel
Hum
%
Delta-T
°C
Wind Press
QNH
hPa
Press
MSL
hPa
Rain since
9am
mm
Dir  Spd
km/h
Gust
km/h
Spd
kts
Gust
kts
12/11:30pm 17.6 8.3 14.1 80 2.0 S 56 67 30 36 1007.6 1007.6 0.0
12/11:01pm 18.0 10.2 15.1 83 1.7 S 50 70 27 38 1007.5 1007.5 0.0
12/11:00pm 17.9 9.6 15.0 83 1.7 S 52 70 28 38 1007.5 1007.5 0.0
12/10:32pm 18.1 11.1 15.4 84 1.6 S 46 65 25 35 1006.8 1006.8 0.0
12/10:30pm 18.1 11.6 15.5 85 1.5 S 44 61 24 33 1006.8 1006.8 0.0
12/10:00pm 18.6 11.0 15.8 84 1.7 S 50 65 27 35 1006.4 1006.4 0.0
12/09:30pm 19.0 11.9 16.0 83 1.8 SSW 48 65 26 35 1005.5 1005.5 0.0
12/09:14pm 19.3 12.8 16.7 85 1.6 SSW 46 67 25 36 1005.4 1005.4 0.0
12/09:00pm 19.6 12.7 16.6 83 1.8 SSW 48 61 26 33 1004.5 1004.5 0.0
12/08:30pm 21.0 13.6 15.3 70 3.4 SSW 48 69 26 37 1003.5 1003.5 0.0
12/08:19pm 23.3 18.3 12.3 50 6.3 SSW 30 59 16 32 1003.5 1003.5 0.0
12/08:16pm 28.8 24.8 9.0 29 10.9 SW 20 59 11 32 1003.2 1003.2 0.0
12/08:00pm 31.2 26.5 -1.5 12 15.4 WSW 13 22 7 12 1002.0 1002.0 0.0
12/07:30pm 31.7 28.1 -2.3 11 15.8 W 7 11 4 6 1001.3 1001.3 0.0
12/07:00pm 32.3 28.3 -1.9 11 16.2 W 9 17 5 9 1000.9 1000.9 0.0
12/06:30pm 32.7 29.2 -1.6 11 16.2 WNW 7 15 4 8 1000.6 1000.6 0.0
12/06:00pm 33.4 29.4 -2.3 10 16.9 W 9 20 5 11 1000.3 1000.3 0.0
12/05:30pm 34.2 29.3 -3.2 9 17.4 WNW 13 33 7 18 1000.1 1000.1 0.0
12/05:00pm 35.1 30.7 -2.5 9 17.9 W 11 32 6 17 1000.0 1000.0 0.0
12/04:30pm 35.7 31.7 -2.0 9 18.1 WNW 9 24 5 13 1000.1 1000.1 0.0
12/04:00pm 35.8 31.5 -2.0 9 18.3 WNW 11 28 6 15 1000.3 1000.3 0.0
12/03:30pm 34.9 30.1 2.4 13 16.7 NW 17 35 9 19 1000.6 1000.6 0.0
12/03:00pm 34.9 30.4 2.4 13 16.8 NW 15 32 8 17 1001.1 1001.1 0.0
12/02:30pm 36.0 31.7 0.9 11 17.7 NW 13 33 7 18 1001.7 1001.7 0.0
12/02:00pm 35.4 30.5 -0.8 10 17.8 WNW 15 32 8 17 1002.4 1002.4 0.0
12/01:30pm 34.2 28.8 -1.7 10 17.2 WNW 17 37 9 20 1002.8 1002.8 0.0
12/01:00pm 34.3 30.0 0.8 12 16.8 WNW 13 26 7 14 1003.6 1003.6 0.0
12/12:30pm 33.5 30.5 5.9 18 14.9 NW 11 24 6 13 1004.3 1004.3 0.0
12/12:00pm 33.0 29.5 5.5 18 14.7 WNW 13 33 7 18 1004.9 1004.9 0.0
12/11:30am 31.7 28.3 6.0 20 13.7 NW 13 33 7 18 1005.5 1005.5 0.0
12/11:00am 30.9 27.8 7.4 23 12.8 NW 13 24 7 13 1006.2 1006.2 0.0
12/10:30am 29.9 26.7 8.3 26 11.9 NW 15 26 8 14 1006.8 1006.8 0.0
12/10:27am 29.6 26.6 9.2 28 11.4 NW 15 26 8 14 1006.9 1006.9 0.0
12/10:00am 24.6 22.0 15.0 55 5.8 NNE 22 26 12 14 1007.6 1007.6 0.0
12/09:30am 24.1 21.6 14.2 54 5.8 NNE 20 24 11 13 1008.1 1008.1 0.0
12/09:00am 24.4 20.6 12.4 47 6.9 N 24 26 13 14 1008.7 1008.7 0.0
12/08:30am 22.9 20.1 12.5 52 5.9 NNW 19 22 10 12 1009.2 1009.2 0.0
12/08:00am 21.3 18.7 13.2 60 4.6 NNW 19 22 10 12 1009.5 1009.4 0.0
12/07:30am 19.4 17.0 12.7 65 3.8 NW 17 20 9 11 1009.1 1009.1 0.0
12/07:00am 18.3 16.4 13.0 71 3.0 NW 15 17 8 9 1009.2 1009.2 0.0
12/06:30am 16.7 15.2 13.2 80 2.0 NW 13 19 7 10 1009.2 1009.2 0.0
12/06:00am 15.7 15.0 14.2 91 0.9 NW 11 13 6 7 1009.2 1009.2 0.0
12/05:30am 16.4 16.0 15.3 93 0.6 NNW 11 15 6 8 1009.0 1009.0 0.0
12/05:00am 16.8 16.1 15.5 92 0.8 NW 13 15 7 8 1009.1 1009.1 0.0
12/04:30am 16.8 16.1 15.5 92 0.8 NNW 13 13 7 7 1009.2 1009.2 0.0
12/04:00am 16.7 16.4 15.4 92 0.8 NW 11 13 6 7 1009.7 1009.6 0.0
12/03:30am 16.6 16.6 15.3 92 0.8 NNW 9 11 5 6 1010.1 1010.0 0.0
12/03:00am 17.1 17.2 15.4 90 1.0 NNW 9 11 5 6 1010.4 1010.3 0.0
12/02:30am 17.5 16.8 15.3 87 1.3 N 13 15 7 8 1010.5 1010.4 0.0
12/02:00am 17.7 16.4 15.7 88 1.2 N 17 17 9 9 1010.7 1010.6 0.0
12/01:30am 17.8 16.5 15.8 88 1.2 N 17 19 9 10 1011.1 1011.0 0.0
12/01:00am 18.1 16.5 16.1 88 1.2 N 19 20 10 11 1011.5 1011.4 0.0
12/12:30am 18.0 16.5 16.2 89 1.1 NNE 19 20 10 11 1011.8 1011.7 0.0
12/12:00am 18.0 17.2 16.0 88 1.2 N 15 17 8 9 1012.0 1011.9 0.0
 
Date/Time
EDT
Temp
°C
App
Temp
°C
Dew
Point
°C
Rel
Hum
%
Delta-T
°C
Wind Press
QNH
hPa
Press
MSL
hPa
Rain since
9am
mm
Dir  Spd
km/h
Gust
km/h
Spd
kts
Gust
kts
11/11:30pm 18.2 16.4 16.0 87 1.3 N 20 24 11 13 1012.1 1012.0 0.0
11/11:00pm 18.3 16.1 16.8 91 0.9 NNE 24 26 13 14 1012.2 1012.1 0.0
11/10:30pm 18.6 15.6 16.8 89 1.1 NNE 28 30 15 16 1012.3 1012.2 0.0
11/10:00pm 18.8 14.7 16.4 86 1.4 NNE 33 41 18 22 1012.3 1012.2 0.0
11/09:30pm 18.9 15.0 16.9 88 1.2 NNE 33 37 18 20 1012.2 1012.1 0.0
11/09:00pm 18.8 15.9 17.1 90 1.0 N 28 32 15 17 1012.2 1012.1 0.0
11/08:30pm 19.0 15.3 17.0 88 1.2 NNE 32 37 17 20 1012.1 1012.0 0.0
11/08:00pm 19.1 15.3 17.1 88 1.2 NNE 33 39 18 21 1012.0 1011.9 0.0
11/07:30pm 19.1 14.3 16.7 86 1.4 NNE 37 43 20 23 1011.9 1011.8 0.0
11/07:00pm 19.2 14.0 16.6 85 1.6 NNE 39 44 21 24 1011.7 1011.6 0.0
11/06:30pm 19.4 14.1 16.4 83 1.8 NNE 39 43 21 23 1011.6 1011.5 0.0
11/06:00pm 19.6 14.7 16.4 82 1.9 NE 37 43 20 23 1011.6 1011.5 0.0
11/05:30pm 19.9 15.8 16.5 81 2.0 NE 33 39 18 21 1011.8 1011.7 0.0
11/05:00pm 20.8 16.0 16.6 77 2.5 NE 37 43 20 23 1011.9 1011.8 0.0
11/04:30pm 21.4 17.4 16.6 74 2.9 NE 33 39 18 21 1012.1 1012.0 0.0
11/04:00pm 22.2 17.7 16.5 70 3.5 NE 35 43 19 23 1012.2 1012.1 0.0
11/03:30pm 23.3 19.5 16.6 66 4.1 NE 32 35 17 19 1012.5 1012.4 0.0
11/03:00pm 24.0 21.4 16.8 64 4.4 ENE 26 30 14 16 1013.2 1013.1 0.0
11/02:30pm 24.8 22.6 16.8 61 4.9 ENE 24 30 13 16 1013.8 1013.7 0.0
11/02:00pm 24.9 23.2 17.1 62 4.8 ENE 22 26 12 14 1014.4 1014.3 0.0
11/01:30pm 24.2 22.3 16.7 63 4.6 ENE 22 28 12 15 1014.7 1014.6 0.0
11/01:00pm 25.1 22.9 16.8 60 5.1 ENE 24 28 13 15 1014.9 1014.8 0.0
11/12:30pm 25.3 23.6 17.2 61 5.0 ENE 22 26 12 14 1015.2 1015.1 0.0
11/12:00pm 25.5 23.8 17.2 60 5.2 NE 22 26 12 14 1015.6 1015.5 0.0
11/11:30am 24.7 22.8 16.7 61 4.9 NE 22 26 12 14 1016.0 1015.9 0.0
11/11:00am 25.0 23.1 16.7 60 5.1 NE 22 26 12 14 1016.4 1016.3 0.0
11/10:30am 24.8 23.6 17.0 62 4.8 NE 19 20 10 11 1016.8 1016.7 0.0
11/10:00am 21.8 19.8 13.9 61 4.6 N 17 20 9 11 1016.8 1016.7 0.0
11/09:30am 21.4 20.6 15.0 67 3.8 N 13 15 7 8 1017.0 1016.9 0.0
11/09:00am 20.0 19.1 14.8 72 3.0 N 13 17 7 9 1017.0 1016.9 0.0
11/08:30am 19.1 19.0 15.0 77 2.4 N 9 11 5 6 1016.9 1016.8 0.0
11/08:00am 18.0 17.5 13.9 77 2.3 NNW 9 11 5 6 1016.6 1016.5 0.0
11/07:30am 17.4 17.8 13.7 79 2.1 NNW 4 6 2 3 1016.7 1016.6 0.0
11/07:00am 16.7 17.2 14.0 84 1.5 NW 4 7 2 4 1016.5 1016.4 0.0
11/06:30am 15.4 14.6 12.9 85 1.4 W 9 11 5 6 1016.7 1016.6 0.0
11/06:00am 15.3 15.4 12.8 85 1.4 WNW 4 7 2 4 1016.3 1016.2 0.0
11/05:30am 15.1 14.7 13.0 87 1.2 W 7 11 4 6 1016.0 1015.9 0.0
11/05:00am 15.3 15.1 13.0 86 1.3 W 6 9 3 5 1015.7 1015.6 0.0
11/04:30am 14.9 13.7 12.9 88 1.1 W 11 13 6 7 1015.7 1015.6 0.0
11/04:00am 15.3 14.6 13.3 88 1.1 W 9 13 5 7 1015.7 1015.6 0.0
11/03:30am 15.3 15.1 13.0 86 1.3 WSW 6 7 3 4 1015.7 1015.6 0.0
11/03:00am 15.5 14.8 13.3 87 1.2 W 9 11 5 6 1015.8 1015.7 0.0
11/02:30am 15.8 15.2 13.5 86 1.3 W 9 11 5 6 1016.0 1015.9 0.0
11/02:00am 16.1 15.9 13.6 85 1.4 W 7 9 4 5 1016.0 1015.9 0.0
11/01:30am 16.3 16.2 13.8 85 1.4 W 7 9 4 5 1016.1 1016.0 0.0
11/01:00am 16.3 16.6 13.4 83 1.6 SW 4 6 2 3 1016.3 1016.2 0.0
11/12:30am 16.5 17.4 14.0 85 1.4 SW 2 6 1 3 1016.4 1016.3 0.0
11/12:00am 16.6 17.1 13.9 84 1.5 SSE 4 6 2 3 1016.5 1016.4 0.0
 
Date/Time
EDT
Temp
°C
App
Temp
°C
Dew
Point
°C
Rel
Hum
%
Delta-T
°C
Wind Press
QNH
hPa
Press
MSL
hPa
Rain since
9am
mm
Dir  Spd
km/h
Gust
km/h
Spd
kts
Gust
kts
10/11:30pm 17.0 16.7 14.3 84 1.5 SSE 9 13 5 7 1016.5 1016.4 0.0
10/11:00pm 17.2 16.5 14.3 83 1.7 S 11 13 6 7 1016.4 1016.3 0.0
10/10:30pm 17.5 15.4 14.6 83 1.7 SSE 19 20 10 11 1016.2 1016.1 0.0
10/10:00pm 17.4 14.9 14.1 81 1.9 SSE 20 24 11 13 1015.9 1015.8 0.0
10/09:30pm 17.7 15.5 14.4 81 1.9 SSE 19 22 10 12 1015.6 1015.5 0.0
10/09:00pm 17.8 15.3 14.1 79 2.1 SSE 20 24 11 13 1015.1 1015.0 0.0
10/08:30pm 17.9 15.0 14.0 78 2.2 SSE 22 26 12 14 1014.7 1014.6 0.0
10/08:00pm 17.9 15.6 14.2 79 2.1 SSE 19 20 10 11 1014.3 1014.2 0.0
10/07:30pm 18.1 16.1 13.8 76 2.5 SSE 17 19 9 10 1013.8 1013.7 0.0
10/07:00pm 18.6 17.3 13.7 73 2.8 SSE 13 17 7 9 1013.1 1013.0 0.0
10/06:30pm 19.3 17.1 13.3 68 3.4 SSE 17 20 9 11 1012.5 1012.4 0.0
10/06:00pm 19.9 17.9 12.7 63 4.1 SSE 15 19 8 10 1011.9 1011.8 0.0
10/05:30pm 20.9 19.0 13.1 61 4.5 SE 15 19 8 10 1011.5 1011.4 0.0
10/05:00pm 21.4 18.9 12.3 56 5.1 SE 17 20 9 11 1011.2 1011.1 0.0
10/04:30pm 21.8 19.3 13.4 59 4.8 SSE 19 22 10 12 1011.0 1010.9 0.0
10/04:00pm 22.2 19.3 13.0 56 5.3 SSE 20 22 11 12 1010.9 1010.8 0.0
10/03:30pm 21.7 17.8 12.0 54 5.4 SSE 24 32 13 17 1011.1 1011.0 0.0
10/03:00pm 21.3 15.7 11.6 54 5.4 SSE 32 39 17 21 1011.0 1010.9 0.0
10/02:30pm 21.7 16.1 11.4 52 5.7 SSE 32 35 17 19 1011.2 1011.1 0.0
10/02:00pm 22.0 16.3 11.1 50 6.0 SSE 32 37 17 20 1011.4 1011.3 0.0
10/01:30pm 21.4 14.6 10.6 50 5.9 SSE 37 43 20 23 1011.4 1011.3 0.0
10/01:00pm 22.3 17.4 11.4 50 6.1 SSE 28 33 15 18 1011.6 1011.5 0.0
10/12:30pm 23.1 19.2 10.9 46 6.8 SSE 22 26 12 14 1012.2 1012.1 0.0
10/12:00pm 22.6 19.3 11.7 50 6.1 S 20 24 11 13 1012.5 1012.4 0.0
10/11:30am 22.2 18.7 11.0 49 6.2 S 20 24 11 13 1012.7 1012.6 0.0
10/11:00am 21.3 17.6 9.5 47 6.3 SSW 19 26 10 14 1012.7 1012.6 0.0
10/10:30am 21.0 17.7 6.5 39 7.3 SW 13 26 7 14 1012.9 1012.8 0.0
10/10:00am 20.5 17.4 5.7 38 7.3 WSW 11 20 6 11 1012.7 1012.6 0.0
10/09:30am 19.5 15.9 4.8 38 7.1 WSW 13 24 7 13 1012.7 1012.6 0.0
10/09:00am 18.7 14.6 4.1 38 6.9 WSW 15 26 8 14 1012.7 1012.6 0.0
10/08:30am 18.5 15.4 5.4 42 6.4 WSW 11 24 6 13 1012.5 1012.4 0.0
10/08:00am 17.6 14.7 4.9 43 6.1 WSW 9 19 5 10 1012.3 1012.2 0.0
10/07:30am 16.7 14.4 4.7 45 5.7 W 6 13 3 7 1011.9 1011.8 0.0
10/07:00am 15.7 13.1 4.1 46 5.4 W 7 15 4 8 1011.6 1011.5 0.0
10/06:30am 15.1 12.6 3.9 47 5.1 WNW 6 13 3 7 1011.6 1011.5 0.0
10/06:00am 13.7 11.2 3.8 51 4.5 WNW 6 11 3 6 1011.2 1011.1 0.0
10/05:30am 13.7 11.2 3.5 50 4.6 WNW 6 11 3 6 1010.7 1010.6 0.0

Latest Capital City Observations: Canberra | Sydney | Melbourne | Brisbane | Adelaide | Perth | Hobart | Darwin

Other formats

Comma delimited format used in spreadsheet applications
http://www.bom.gov.au/fwo/IDN60901/IDN60901.95770.axf

JavaScript Object Notation format (JSON) in row-major order
http://www.bom.gov.au/fwo/IDN60901/IDN60901.95770.json

Data quality

Most of these data are generated automatically and are frequently updated. Quality checks on data are not normally performed. It is possible for incorrect values to appear. Refer to information at About Latest Weather Observations and please check the disclaimer before using these data.